Hauptseite
METAR-TAF:

METAR-TAF

Flughäfen :

Fliegerhorst Lechfeld

Lechfeld, Deutschland

Breite: 48-11N, Länge: 010-52E, Höhe: 555 m

Beobachtung

Neuester Wetterbericht von vor 53 Minuten, um 16:20 UTC
Wind 6 kt aus Südost
Temperatur 12°C
Luftfeuchtigkeit 82%
Luftdruck 1024 hPa
Sichtweite 10 km oder mehr
Durchbrochene Bewölkung in der Höhe von 4000 ft
Durchbrochene Bewölkung in der Höhe von 5000 ft
Schauer in der Nähe

METAR: ETSL 191620Z 14006KT 9999 VCSH BKN040 BKN050 12/09 Q1024 BLU

Zeit: 19:13 (17:13 UTC)

Prognose

Neuester Wetterbericht von vor 3 Stunden und 54 Minuten, um 13:19 UTC
Gültige Prognose vom 19 um 14 UTC bis 19 um 23 UTC
Wind 8 kt aus Süd/Südwest
Sichtweite 10 km oder mehr
Durchbrochene Bewölkung in der Höhe von 3000 ft

TAF: ETSL 191319Z 1914/1923 21008KT 9999 NSW BKN030 BY ETGL

Wetterbeobachtungen und Prognosen von mehr als 4000 Flughäfen (METAR und TAF Bericht).

Die verfügbaren Stationen werden durch gelbe und rote Markierungen auf der Karte dargestellt.

Führen Sie die Maus auf sie, um den Namen der Station zu sehen.

Darauf klicken, um die Beobachtung von Wetterbeobachtungen und Prognosen zu sehen.

Um die Karte zu ändern : klicken Sie auf den grünen Tasten mit einem schwarzen Kreuz Zum Vergrößern, auf den grünen Button mit einem Gedankenstrich zu verkleinern, oder auf die grünen Pfeile für benachbarte Karten.


METAR-TAF: